createdAt,value
2019-06-20T00:00:39.725Z,7.05
2019-06-20T00:01:18.655Z,6.20
2019-06-20T00:01:57.036Z,7.53
2019-06-20T00:02:36.000Z,6.60
2019-06-20T00:03:15.232Z,6.45
2019-06-20T00:03:53.629Z,6.53
2019-06-20T00:04:32.604Z,6.67
2019-06-20T00:05:11.972Z,6.35
2019-06-20T00:05:50.309Z,6.67
2019-06-20T00:06:29.211Z,6.45
2019-06-20T00:07:08.158Z,7.80
2019-06-20T00:07:46.511Z,6.50
2019-06-20T00:08:25.428Z,7.00
2019-06-20T00:09:04.545Z,6.50
2019-06-20T00:09:42.914Z,6.42
2019-06-20T00:10:21.845Z,6.55
2019-06-20T00:11:00.781Z,6.55
2019-06-20T00:11:39.160Z,6.85
2019-06-20T00:12:18.178Z,6.15
2019-06-20T00:13:00.706Z,6.75
2019-06-20T00:13:36.937Z,6.55
2019-06-20T00:14:16.024Z,6.60
2019-06-20T00:14:55.064Z,6.65
2019-06-20T00:15:33.408Z,6.20
2019-06-20T00:16:12.332Z,6.70
2019-06-20T00:16:51.307Z,6.67
2019-06-20T00:17:29.723Z,6.35
2019-06-20T00:18:08.661Z,6.62
2019-06-20T00:18:47.689Z,6.37
2019-06-20T00:19:26.040Z,6.03
2019-06-20T00:20:04.983Z,6.97
2019-06-20T00:20:43.965Z,6.37
2019-06-20T00:21:22.332Z,6.40
2019-06-20T00:22:01.237Z,6.78
2019-06-20T00:22:40.209Z,6.87
2019-06-20T00:23:18.602Z,6.97
2019-06-20T00:23:57.615Z,7.22
2019-06-20T00:24:36.559Z,6.43
2019-06-20T00:25:14.996Z,7.58
2019-06-20T00:25:53.881Z,6.50
2019-06-20T00:26:32.785Z,7.03
2019-06-20T00:27:11.158Z,7.50
2019-06-20T00:27:50.138Z,7.12
2019-06-20T00:28:29.134Z,7.50
2019-06-20T00:29:07.477Z,6.97
2019-06-20T00:29:46.410Z,6.62
2019-06-20T00:30:25.568Z,6.90
2019-06-20T00:31:03.936Z,7.05
2019-06-20T00:31:42.822Z,7.15
2019-06-20T00:32:21.796Z,6.65
2019-06-20T00:33:00.125Z,7.12
2019-06-20T00:33:39.055Z,6.92
2019-06-20T00:34:17.972Z,6.33
2019-06-20T00:34:56.320Z,6.20
2019-06-20T00:35:35.234Z,7.05
2019-06-20T00:36:14.117Z,7.45
2019-06-20T00:36:52.425Z,7.10
2019-06-20T00:37:31.329Z,6.47
2019-06-20T00:38:10.221Z,7.25
2019-06-20T00:38:48.541Z,6.60
2019-06-20T00:39:27.429Z,6.83
2019-06-20T00:40:06.336Z,6.95
2019-06-20T00:40:44.785Z,7.12
2019-06-20T00:41:23.802Z,7.22
2019-06-20T00:42:02.698Z,6.72
2019-06-20T00:42:41.037Z,6.80
2019-06-20T00:43:19.948Z,6.95
2019-06-20T00:43:58.885Z,6.60
2019-06-20T00:44:37.194Z,6.20
2019-06-20T00:45:17.371Z,7.00
2019-06-20T00:45:56.276Z,6.42
2019-06-20T00:46:34.563Z,7.17
2019-06-20T00:47:13.464Z,7.53
2019-06-20T00:47:52.389Z,6.95
2019-06-20T00:48:30.733Z,7.30
2019-06-20T00:49:09.701Z,7.05
2019-06-20T00:49:48.709Z,6.80
2019-06-20T00:50:27.037Z,7.70
2019-06-20T00:51:06.046Z,6.97
2019-06-20T00:51:44.949Z,6.70
2019-06-20T00:52:23.270Z,6.67
2019-06-20T00:53:02.173Z,7.50
2019-06-20T00:53:41.101Z,6.30
2019-06-20T00:54:19.443Z,7.20
2019-06-20T00:54:58.341Z,6.58
2019-06-20T00:55:37.269Z,6.65
2019-06-20T00:56:15.730Z,7.10
2019-06-20T00:56:54.661Z,7.00
2019-06-20T00:57:33.599Z,7.65
2019-06-20T00:58:11.920Z,7.08
2019-06-20T00:58:50.820Z,5.60
2019-06-20T00:59:29.732Z,7.22
2019-06-20T01:00:08.466Z,6.85
2019-06-20T01:00:47.444Z,6.90
2019-06-20T01:01:26.330Z,7.12
2019-06-20T01:02:04.763Z,6.37
2019-06-20T01:02:43.699Z,7.30
2019-06-20T01:03:22.612Z,7.55
2019-06-20T01:04:00.940Z,6.72
2019-06-20T01:04:39.888Z,6.90
2019-06-20T01:05:18.784Z,7.15
2019-06-20T01:05:57.118Z,6.80
2019-06-20T01:06:36.013Z,7.28
2019-06-20T01:07:14.936Z,7.28
2019-06-20T01:07:53.244Z,7.25
2019-06-20T01:08:32.207Z,7.05
2019-06-20T01:09:12.451Z,7.00
2019-06-20T01:09:50.813Z,6.62
2019-06-20T01:10:29.696Z,6.85
2019-06-20T01:11:08.680Z,5.95
2019-06-20T01:11:47.013Z,6.33
2019-06-20T01:12:25.881Z,6.67
2019-06-20T01:13:05.011Z,6.33
2019-06-20T01:13:43.323Z,6.70
2019-06-20T01:14:22.267Z,6.50
2019-06-20T01:15:01.345Z,6.72
2019-06-20T01:15:39.728Z,7.10
2019-06-20T01:16:18.702Z,7.20
2019-06-20T01:16:57.706Z,7.37
2019-06-20T01:17:36.022Z,7.30
2019-06-20T01:18:16.024Z,6.47
2019-06-20T01:18:54.968Z,6.85
2019-06-20T01:19:33.287Z,6.35
2019-06-20T01:20:12.287Z,6.80
2019-06-20T01:20:51.238Z,7.05
2019-06-20T01:21:29.646Z,7.20
2019-06-20T01:22:08.667Z,6.50
2019-06-20T01:22:47.595Z,6.72
2019-06-20T01:23:25.957Z,7.28
2019-06-20T01:24:04.891Z,6.78
2019-06-20T01:24:43.788Z,7.07
2019-06-20T01:25:41.668Z,6.53
2019-06-20T01:26:20.739Z,7.05
2019-06-20T01:26:59.689Z,6.80
2019-06-20T01:27:38.122Z,7.65
2019-06-20T01:28:17.046Z,6.90
2019-06-20T01:28:55.955Z,7.30
2019-06-20T01:29:34.262Z,6.95
2019-06-20T01:30:13.348Z,7.30
2019-06-20T01:30:52.319Z,7.00
2019-06-20T01:31:30.669Z,6.67
2019-06-20T01:32:09.625Z,6.87
2019-06-20T01:32:48.616Z,6.53
2019-06-20T01:33:26.937Z,7.20
2019-06-20T01:34:05.885Z,7.35
2019-06-20T01:34:44.791Z,7.43
2019-06-20T01:35:23.170Z,6.30
2019-06-20T01:36:02.258Z,7.08
2019-06-20T01:36:41.281Z,6.67
2019-06-20T01:37:19.693Z,7.10
2019-06-20T01:37:58.605Z,7.20
2019-06-20T01:38:37.545Z,6.23
2019-06-20T01:39:15.900Z,6.40
2019-06-20T01:39:54.785Z,6.85
2019-06-20T01:40:33.682Z,6.28
2019-06-20T01:41:12.037Z,6.20
2019-06-20T01:41:50.985Z,7.03
2019-06-20T01:42:29.941Z,6.47
2019-06-20T01:43:08.266Z,6.53
2019-06-20T01:43:50.963Z,6.62
2019-06-20T01:44:27.620Z,7.03
2019-06-20T01:45:05.983Z,6.78
2019-06-20T01:45:44.905Z,6.72
2019-06-20T01:46:23.792Z,6.60
2019-06-20T01:47:02.113Z,6.12
2019-06-20T01:47:41.183Z,6.70
2019-06-20T01:48:20.117Z,6.20
2019-06-20T01:48:58.478Z,6.35
2019-06-20T01:49:37.425Z,6.75
2019-06-20T01:50:16.342Z,6.47
2019-06-20T01:50:54.688Z,6.15
2019-06-20T01:51:33.574Z,6.45
2019-06-20T01:52:12.557Z,6.05
2019-06-20T01:52:50.916Z,6.70
2019-06-20T01:53:29.808Z,6.42
2019-06-20T01:54:08.867Z,6.17
2019-06-20T01:54:47.214Z,6.60
2019-06-20T01:55:26.123Z,5.65
2019-06-20T01:56:04.985Z,6.75
2019-06-20T01:56:43.364Z,6.10
2019-06-20T01:57:22.499Z,6.20
2019-06-20T01:58:01.440Z,7.05
2019-06-20T01:58:40.072Z,6.20
2019-06-20T01:59:19.004Z,5.92
2019-06-20T01:59:57.917Z,6.00
2019-06-20T02:00:44.963Z,6.90
2019-06-20T02:01:23.915Z,6.05
2019-06-20T02:02:02.922Z,6.60
2019-06-20T02:02:41.289Z,6.90
2019-06-20T02:03:20.292Z,5.90
2019-06-20T02:03:59.222Z,6.87
2019-06-20T02:04:37.569Z,5.90
2019-06-20T02:05:16.532Z,5.95
2019-06-20T02:05:55.502Z,6.50
2019-06-20T02:06:33.874Z,7.35
2019-06-20T02:07:12.840Z,5.85
2019-06-20T02:07:51.779Z,5.90
2019-06-20T02:08:30.117Z,6.20
2019-06-20T02:09:10.788Z,6.40
2019-06-20T02:09:49.668Z,6.65
2019-06-20T02:10:28.017Z,6.55
2019-06-20T02:11:06.930Z,6.08
2019-06-20T02:11:45.915Z,6.47
2019-06-20T02:12:24.290Z,6.50
2019-06-20T02:13:03.254Z,6.65
2019-06-20T02:13:42.232Z,5.60
2019-06-20T02:14:20.551Z,6.10
2019-06-20T02:14:59.441Z,6.00
2019-06-20T02:15:38.381Z,5.80
2019-06-20T02:16:16.746Z,6.08
2019-06-20T02:16:55.653Z,5.53
2019-06-20T02:17:34.582Z,5.85
2019-06-20T02:18:12.945Z,5.75
2019-06-20T02:18:51.821Z,6.08
2019-06-20T02:19:30.689Z,6.00
2019-06-20T02:20:09.565Z,5.45
2019-06-20T02:20:52.360Z,5.75
2019-06-20T02:21:31.310Z,5.95
2019-06-20T02:22:09.705Z,6.03
2019-06-20T02:22:48.610Z,6.22
2019-06-20T02:23:27.582Z,5.53
2019-06-20T02:24:05.889Z,5.55
2019-06-20T02:24:44.794Z,5.97
2019-06-20T02:25:23.689Z,5.40
2019-06-20T02:26:02.020Z,5.53
2019-06-20T02:26:40.966Z,5.40
2019-06-20T02:27:19.930Z,5.47
2019-06-20T02:27:58.237Z,5.42
2019-06-20T02:28:37.141Z,5.97
2019-06-20T02:29:16.046Z,5.50
2019-06-20T02:29:54.363Z,6.25
2019-06-20T02:30:33.290Z,5.65
2019-06-20T02:31:12.273Z,5.60
2019-06-20T02:31:50.618Z,5.55
2019-06-20T02:32:29.561Z,5.58
2019-06-20T02:33:08.522Z,5.30
2019-06-20T02:33:46.838Z,5.35
2019-06-20T02:34:25.766Z,5.58
2019-06-20T02:35:04.674Z,5.17
2019-06-20T02:35:43.027Z,5.37
2019-06-20T02:36:21.928Z,5.37
2019-06-20T02:37:00.865Z,5.60
2019-06-20T02:37:39.158Z,4.97
2019-06-20T02:38:18.156Z,6.12
2019-06-20T02:38:57.055Z,5.22
2019-06-20T02:39:35.421Z,4.87
2019-06-20T02:40:14.330Z,5.40
2019-06-20T02:40:53.263Z,5.28
2019-06-20T02:41:31.596Z,5.25
2019-06-20T02:42:10.585Z,5.30
2019-06-20T02:42:49.525Z,5.50
2019-06-20T02:43:27.931Z,5.50
2019-06-20T02:44:27.830Z,4.80
2019-06-20T02:44:47.192Z,5.12
2019-06-20T02:45:25.477Z,5.33
2019-06-20T02:46:04.373Z,5.50
2019-06-20T02:46:43.300Z,5.10
2019-06-20T02:47:21.636Z,5.25
2019-06-20T02:48:00.569Z,5.00
2019-06-20T02:48:39.492Z,4.97
2019-06-20T02:49:17.829Z,4.72
2019-06-20T02:49:56.788Z,5.20
2019-06-20T02:50:35.726Z,5.47
2019-06-20T02:51:14.074Z,4.85
2019-06-20T02:51:53.049Z,5.55
2019-06-20T02:52:31.966Z,5.12
2019-06-20T02:53:10.325Z,5.42
2019-06-20T02:53:49.242Z,4.90
2019-06-20T02:54:28.188Z,4.42
2019-06-20T02:55:06.565Z,4.85
2019-06-20T02:55:45.505Z,4.55
2019-06-20T02:56:24.622Z,4.92
2019-06-20T02:57:03.015Z,4.90
2019-06-20T02:57:41.947Z,4.75
2019-06-20T02:58:20.878Z,4.72
2019-06-20T02:58:59.205Z,4.50
2019-06-20T02:59:38.096Z,5.12
2019-06-20T03:00:16.996Z,4.60
2019-06-20T03:01:02.243Z,4.83
2019-06-20T03:01:41.181Z,4.65
2019-06-20T03:02:20.109Z,4.20
2019-06-20T03:02:58.474Z,4.42
2019-06-20T03:03:37.402Z,4.90
2019-06-20T03:04:16.295Z,5.08
2019-06-20T03:04:54.664Z,5.80
2019-06-20T03:05:33.629Z,5.45
2019-06-20T03:06:12.675Z,4.62
2019-06-20T03:06:51.079Z,4.97
2019-06-20T03:07:30.059Z,3.80
2019-06-20T03:08:09.039Z,4.67
2019-06-20T03:08:47.430Z,4.95
2019-06-20T03:09:26.364Z,4.35
2019-06-20T03:10:05.315Z,4.62
2019-06-20T03:10:43.649Z,3.93
2019-06-20T03:11:22.601Z,4.40
2019-06-20T03:12:01.517Z,4.67
2019-06-20T03:12:39.894Z,4.43
2019-06-20T03:13:18.861Z,4.37
2019-06-20T03:13:57.804Z,4.55
2019-06-20T03:14:45.097Z,4.17
2019-06-20T03:15:16.488Z,4.22
2019-06-20T03:15:55.406Z,4.37
2019-06-20T03:16:33.750Z,4.20
2019-06-20T03:17:12.695Z,3.83
2019-06-20T03:17:51.649Z,4.80
2019-06-20T03:18:29.930Z,4.07
2019-06-20T03:19:08.838Z,3.75
2019-06-20T03:19:47.734Z,3.75
2019-06-20T03:20:26.093Z,3.80
2019-06-20T03:21:05.030Z,4.35
2019-06-20T03:21:43.919Z,4.50
2019-06-20T03:22:22.269Z,3.95
2019-06-20T03:23:01.214Z,3.87
2019-06-20T03:23:40.136Z,4.85
2019-06-20T03:24:18.484Z,4.17
2019-06-20T03:24:57.440Z,4.10
2019-06-20T03:25:36.365Z,3.75
2019-06-20T03:26:15.537Z,3.85
2019-06-20T03:26:54.433Z,4.05
2019-06-20T03:27:33.341Z,3.50
2019-06-20T03:28:11.701Z,4.67
2019-06-20T03:28:50.678Z,3.98
2019-06-20T03:29:29.603Z,3.98
2019-06-20T03:30:08.369Z,4.50
2019-06-20T03:31:05.345Z,4.10
2019-06-20T03:31:44.242Z,4.15
2019-06-20T03:32:22.570Z,3.85
2019-06-20T03:33:01.462Z,4.15
2019-06-20T03:33:40.382Z,4.00
2019-06-20T03:34:18.688Z,3.77
2019-06-20T03:34:57.612Z,3.75
2019-06-20T03:35:36.556Z,4.22
2019-06-20T03:36:15.037Z,4.17
2019-06-20T03:36:53.987Z,3.45
2019-06-20T03:37:32.957Z,3.62
2019-06-20T03:38:11.309Z,3.83
2019-06-20T03:38:50.231Z,3.77
2019-06-20T03:39:29.265Z,4.12
2019-06-20T03:40:07.701Z,3.92
2019-06-20T03:40:46.708Z,3.52
2019-06-20T03:41:25.609Z,3.85
2019-06-20T03:42:03.984Z,4.15
2019-06-20T03:42:42.880Z,3.50
2019-06-20T03:43:21.783Z,4.47
2019-06-20T03:44:00.106Z,3.80
2019-06-20T03:44:38.986Z,3.77
2019-06-20T03:45:17.953Z,3.42
2019-06-20T03:45:56.312Z,4.40
2019-06-20T03:46:35.263Z,3.80
2019-06-20T03:47:14.278Z,3.87
2019-06-20T03:47:52.608Z,3.87
2019-06-20T03:48:31.518Z,3.55
2019-06-20T03:49:10.422Z,3.67
2019-06-20T03:49:48.737Z,3.40
2019-06-20T03:50:27.669Z,3.65
2019-06-20T03:51:06.584Z,3.97
2019-06-20T03:51:44.957Z,3.80
2019-06-20T03:52:23.868Z,2.90
2019-06-20T03:53:05.829Z,3.92
2019-06-20T03:53:44.193Z,3.42
2019-06-20T03:54:23.125Z,3.65
2019-06-20T03:55:02.173Z,3.42
2019-06-20T03:55:40.554Z,3.50
2019-06-20T03:56:23.233Z,3.40
2019-06-20T03:57:02.203Z,3.70
2019-06-20T03:57:40.528Z,3.80
2019-06-20T03:58:19.433Z,3.90
2019-06-20T03:58:58.367Z,3.30
2019-06-20T03:59:36.740Z,3.00
2019-06-20T04:00:15.672Z,3.75
2019-06-20T04:00:54.660Z,3.80
2019-06-20T04:01:32.977Z,3.60
2019-06-20T04:02:11.905Z,3.20
2019-06-20T04:02:50.865Z,3.50
2019-06-20T04:03:29.253Z,3.72
2019-06-20T04:04:08.192Z,3.72
2019-06-20T04:04:47.144Z,3.30
2019-06-20T04:05:25.586Z,3.55
2019-06-20T04:06:04.477Z,3.20
2019-06-20T04:06:43.408Z,3.60
2019-06-20T04:07:21.769Z,3.77
2019-06-20T04:08:01.098Z,3.35
2019-06-20T04:08:40.008Z,3.23
2019-06-20T04:09:18.332Z,3.10
2019-06-20T04:09:57.348Z,3.30
2019-06-20T04:10:36.426Z,3.20
2019-06-20T04:11:14.810Z,3.40
2019-06-20T04:11:53.757Z,2.75
2019-06-20T04:12:32.693Z,3.43
2019-06-20T04:13:11.025Z,3.20
2019-06-20T04:13:49.972Z,3.27
2019-06-20T04:14:28.925Z,3.30
2019-06-20T04:15:18.543Z,3.30
2019-06-20T04:15:47.762Z,3.20
2019-06-20T04:16:27.677Z,3.00
2019-06-20T04:17:06.021Z,2.95
2019-06-20T04:17:44.964Z,4.00
2019-06-20T04:18:23.869Z,3.37
2019-06-20T04:19:02.217Z,2.85
2019-06-20T04:19:41.153Z,3.10
2019-06-20T04:20:20.045Z,2.60
2019-06-20T04:20:58.439Z,3.00
2019-06-20T04:21:37.399Z,3.00
2019-06-20T04:22:16.314Z,3.10
2019-06-20T04:22:54.690Z,3.50
2019-06-20T04:23:33.589Z,2.65
2019-06-20T04:24:12.474Z,2.85
2019-06-20T04:24:50.822Z,3.10
2019-06-20T04:25:29.705Z,3.10
2019-06-20T04:26:08.637Z,3.10
2019-06-20T04:26:46.996Z,3.00
2019-06-20T04:27:26.001Z,3.10
2019-06-20T04:28:05.032Z,2.93
2019-06-20T04:28:43.387Z,2.83
2019-06-20T04:29:22.272Z,3.02
2019-06-20T04:30:01.185Z,3.03
2019-06-20T04:30:39.499Z,2.90
2019-06-20T04:31:18.421Z,2.63
2019-06-20T04:31:57.304Z,2.97
2019-06-20T04:32:35.690Z,3.03
2019-06-20T04:33:15.026Z,2.80
2019-06-20T04:33:53.977Z,3.08
2019-06-20T04:34:32.341Z,2.83
2019-06-20T04:35:11.321Z,2.50
2019-06-20T04:35:50.214Z,3.30
2019-06-20T04:36:28.528Z,2.77
2019-06-20T04:37:07.498Z,2.67
2019-06-20T04:37:46.467Z,2.90
2019-06-20T04:38:24.912Z,2.72
2019-06-20T04:39:18.324Z,2.50
2019-06-20T04:39:44.311Z,2.60
2019-06-20T04:40:22.680Z,2.60
2019-06-20T04:41:01.628Z,2.42
2019-06-20T04:41:40.545Z,2.70
2019-06-20T04:42:18.974Z,2.87
2019-06-20T04:42:58.017Z,3.15
2019-06-20T04:43:36.941Z,3.00
2019-06-20T04:44:15.257Z,2.58
2019-06-20T04:44:54.877Z,3.00
2019-06-20T04:45:54.348Z,2.60
2019-06-20T04:46:38.028Z,2.80
2019-06-20T04:47:17.069Z,2.53
2019-06-20T04:47:55.964Z,2.83
2019-06-20T04:48:34.317Z,2.57
2019-06-20T04:49:13.268Z,2.77
2019-06-20T04:49:52.223Z,2.75
2019-06-20T04:50:30.590Z,2.40
2019-06-20T04:51:09.516Z,2.60
2019-06-20T04:51:48.464Z,2.77
2019-06-20T04:52:26.822Z,2.95
2019-06-20T04:53:06.020Z,2.70
2019-06-20T04:53:44.915Z,2.33
2019-06-20T04:54:23.259Z,2.53
2019-06-20T04:55:02.182Z,2.70
2019-06-20T04:55:41.168Z,2.40
2019-06-20T04:56:19.557Z,2.67
2019-06-20T04:56:58.489Z,2.27
2019-06-20T04:57:37.384Z,2.67
2019-06-20T04:58:15.713Z,3.30
2019-06-20T04:58:54.580Z,2.50
2019-06-20T04:59:33.541Z,2.30
2019-06-20T05:00:11.953Z,2.70
2019-06-20T05:00:50.925Z,2.10
2019-06-20T05:01:29.827Z,2.20
2019-06-20T05:02:08.264Z,2.70
2019-06-20T05:02:47.288Z,2.65
2019-06-20T05:03:26.270Z,1.95
2019-06-20T05:04:04.639Z,2.80
2019-06-20T05:04:43.550Z,2.60
2019-06-20T05:05:22.522Z,2.83
2019-06-20T05:06:00.875Z,2.65
2019-06-20T05:06:39.776Z,2.20
2019-06-20T05:07:23.260Z,2.40
2019-06-20T05:08:01.596Z,2.80
2019-06-20T05:08:40.570Z,2.43
2019-06-20T05:09:19.437Z,2.30
2019-06-20T05:09:57.825Z,2.80
2019-06-20T05:10:36.742Z,2.20
2019-06-20T05:11:15.676Z,2.52
2019-06-20T05:11:54.033Z,2.50
2019-06-20T05:12:33.038Z,2.70
2019-06-20T05:13:12.005Z,2.42
2019-06-20T05:13:50.409Z,2.70
2019-06-20T05:14:29.365Z,2.70
2019-06-20T05:15:08.557Z,2.40
2019-06-20T05:15:52.582Z,2.95
2019-06-20T05:16:27.384Z,3.22
2019-06-20T05:17:07.235Z,2.90
2019-06-20T05:17:45.845Z,2.53
2019-06-20T05:18:24.744Z,3.10
2019-06-20T05:19:03.680Z,3.00
2019-06-20T05:19:42.052Z,2.40
2019-06-20T05:20:20.957Z,2.77
2019-06-20T05:20:59.923Z,2.67
2019-06-20T05:21:38.305Z,2.80
2019-06-20T05:22:17.238Z,3.10
2019-06-20T05:22:56.181Z,2.72
2019-06-20T05:23:34.519Z,3.00
2019-06-20T05:24:13.477Z,2.75
2019-06-20T05:24:52.427Z,3.60
2019-06-20T05:25:30.809Z,2.50
2019-06-20T05:26:09.713Z,2.50
2019-06-20T05:26:48.637Z,3.57
2019-06-20T05:27:26.985Z,2.87
2019-06-20T05:28:05.945Z,3.20
2019-06-20T05:28:44.885Z,3.33
2019-06-20T05:29:23.232Z,3.08
2019-06-20T05:30:02.233Z,2.80
2019-06-20T05:30:41.147Z,2.80
2019-06-20T05:31:19.489Z,3.00
2019-06-20T05:31:58.381Z,3.03
2019-06-20T05:32:37.296Z,3.00
2019-06-20T05:33:15.997Z,3.70
2019-06-20T05:33:54.896Z,3.20
2019-06-20T05:34:33.833Z,2.83
2019-06-20T05:35:12.207Z,3.35
2019-06-20T05:35:51.109Z,3.47
2019-06-20T05:36:30.028Z,3.27
2019-06-20T05:37:08.344Z,3.30
2019-06-20T05:37:47.254Z,3.15
2019-06-20T05:38:26.149Z,4.00
2019-06-20T05:39:04.461Z,3.98
2019-06-20T05:39:43.397Z,3.30
2019-06-20T05:40:22.309Z,4.17
2019-06-20T05:41:01.082Z,3.67
2019-06-20T05:41:40.149Z,3.80
2019-06-20T05:42:19.072Z,4.90
2019-06-20T05:42:57.424Z,3.77
2019-06-20T05:43:36.383Z,3.50
2019-06-20T05:44:15.661Z,3.60
2019-06-20T05:44:54.017Z,4.57
2019-06-20T05:45:33.048Z,4.43
2019-06-20T05:46:12.037Z,4.00
2019-06-20T05:46:50.408Z,3.80
2019-06-20T05:47:29.298Z,4.50
2019-06-20T05:48:08.238Z,4.28
2019-06-20T05:48:46.548Z,3.80
2019-06-20T05:49:25.439Z,4.22
2019-06-20T05:50:04.347Z,4.57
2019-06-20T05:50:43.585Z,3.60
2019-06-20T05:51:22.496Z,4.47
2019-06-20T05:52:01.422Z,4.47
2019-06-20T05:52:39.778Z,4.63
2019-06-20T05:53:18.678Z,4.00
2019-06-20T05:53:57.592Z,4.77
2019-06-20T05:54:35.912Z,4.50
2019-06-20T05:55:15.403Z,4.10
2019-06-20T05:55:54.535Z,4.15
2019-06-20T05:56:32.849Z,4.70
2019-06-20T05:57:11.807Z,4.50
2019-06-20T05:57:50.729Z,4.53
2019-06-20T05:58:29.046Z,4.13
2019-06-20T05:59:08.257Z,4.60
2019-06-20T05:59:47.317Z,4.20
2019-06-20T06:00:25.673Z,4.40
2019-06-20T06:01:04.576Z,4.63
2019-06-20T06:01:43.541Z,4.83
2019-06-20T06:02:22.162Z,4.50
2019-06-20T06:03:01.203Z,4.47
2019-06-20T06:03:40.158Z,4.60
2019-06-20T06:04:18.479Z,4.97
2019-06-20T06:04:57.429Z,4.20
2019-06-20T06:05:37.174Z,4.17
2019-06-20T06:06:16.592Z,4.33
2019-06-20T06:06:55.502Z,4.30
2019-06-20T06:07:34.397Z,4.50
2019-06-20T06:08:12.759Z,4.65
2019-06-20T06:08:51.945Z,4.85
2019-06-20T06:09:30.881Z,4.77
2019-06-20T06:10:10.005Z,4.20
2019-06-20T06:10:48.912Z,4.47
2019-06-20T06:11:27.777Z,4.40
2019-06-20T06:12:06.080Z,4.20
2019-06-20T06:12:45.278Z,4.60
2019-06-20T06:13:24.317Z,4.55
2019-06-20T06:14:02.636Z,4.27
2019-06-20T06:14:41.576Z,4.20
2019-06-20T06:15:20.483Z,4.50
2019-06-20T06:15:58.917Z,5.00
2019-06-20T06:16:37.805Z,4.50
2019-06-20T06:17:16.713Z,4.80
2019-06-20T06:17:56.237Z,4.40
2019-06-20T06:18:35.247Z,4.10
2019-06-20T06:19:14.241Z,4.47
2019-06-20T06:19:52.781Z,4.55
2019-06-20T06:20:31.689Z,4.08
2019-06-20T06:21:10.828Z,4.50
2019-06-20T06:21:49.193Z,4.77
2019-06-20T06:22:28.108Z,5.40
2019-06-20T06:23:07.106Z,5.47
2019-06-20T06:23:46.522Z,4.83
2019-06-20T06:24:25.480Z,5.10
2019-06-20T06:25:04.348Z,4.47
2019-06-20T06:25:43.657Z,4.70
2019-06-20T06:26:22.591Z,4.97
2019-06-20T06:27:01.517Z,4.75
2019-06-20T06:27:39.868Z,4.97
2019-06-20T06:28:18.841Z,5.80
2019-06-20T06:28:57.734Z,4.70
2019-06-20T06:29:36.128Z,5.03
2019-06-20T06:30:15.077Z,5.30
2019-06-20T06:30:53.990Z,4.57
2019-06-20T06:31:32.300Z,4.90
2019-06-20T06:32:11.226Z,5.00
2019-06-20T06:32:50.149Z,4.43
2019-06-20T06:33:28.519Z,4.70
2019-06-20T06:34:07.714Z,4.83
2019-06-20T06:34:46.633Z,4.83
2019-06-20T06:35:25.086Z,5.30
2019-06-20T06:36:04.153Z,5.70
2019-06-20T06:36:43.107Z,4.90
2019-06-20T06:37:21.412Z,4.80
2019-06-20T06:38:00.301Z,4.75
2019-06-20T06:38:39.195Z,5.20
2019-06-20T06:39:17.579Z,4.70
2019-06-20T06:39:56.548Z,4.83
2019-06-20T06:40:35.454Z,5.17
2019-06-20T06:41:14.292Z,4.80
2019-06-20T06:41:53.405Z,4.90
2019-06-20T06:42:32.292Z,4.87
2019-06-20T06:43:10.761Z,5.20
2019-06-20T06:43:49.685Z,5.30
2019-06-20T06:44:31.612Z,4.83
2019-06-20T06:45:10.477Z,5.67
2019-06-20T06:45:49.386Z,5.50
2019-06-20T06:46:42.926Z,5.12
2019-06-20T06:47:08.091Z,5.30
2019-06-20T06:47:47.165Z,5.50
2019-06-20T06:48:26.084Z,5.63
2019-06-20T06:49:04.461Z,5.03
2019-06-20T06:49:43.360Z,5.03
2019-06-20T06:50:22.400Z,5.60
2019-06-20T06:51:00.812Z,5.72
2019-06-20T06:51:39.801Z,5.23
2019-06-20T06:52:18.694Z,5.00
2019-06-20T06:52:57.025Z,5.43
2019-06-20T06:53:35.897Z,4.70
2019-06-20T06:54:15.756Z,4.83
2019-06-20T06:54:54.110Z,5.30
2019-06-20T06:55:33.028Z,4.90
2019-06-20T06:56:11.905Z,5.03
2019-06-20T06:56:50.239Z,5.60
2019-06-20T06:57:29.123Z,5.55
2019-06-20T06:58:08.014Z,5.43
2019-06-20T06:58:46.542Z,5.00
2019-06-20T06:59:25.474Z,5.33
2019-06-20T07:00:04.405Z,5.10
2019-06-20T07:00:42.736Z,5.07
2019-06-20T07:01:21.625Z,5.40
2019-06-20T07:02:00.542Z,5.77
2019-06-20T07:02:38.857Z,5.53
2019-06-20T07:03:17.782Z,5.92
2019-06-20T07:03:56.770Z,5.13
2019-06-20T07:04:35.101Z,4.60
2019-06-20T07:05:14.125Z,5.40
2019-06-20T07:05:53.056Z,5.43
2019-06-20T07:06:31.388Z,5.37
2019-06-20T07:07:10.297Z,5.43
2019-06-20T07:07:49.257Z,6.07
2019-06-20T07:08:27.668Z,5.30
2019-06-20T07:09:07.903Z,5.43
2019-06-20T07:09:46.867Z,5.27
2019-06-20T07:10:25.154Z,5.63
2019-06-20T07:11:04.033Z,5.60
2019-06-20T07:11:42.958Z,5.17
2019-06-20T07:12:21.309Z,4.93
2019-06-20T07:13:00.234Z,5.70
2019-06-20T07:13:39.097Z,5.40
2019-06-20T07:14:17.464Z,5.67
2019-06-20T07:14:56.405Z,5.10
2019-06-20T07:15:35.575Z,5.90
2019-06-20T07:16:14.900Z,5.90
2019-06-20T07:17:00.152Z,6.10
2019-06-20T07:17:34.255Z,5.87
2019-06-20T07:18:12.603Z,5.85
2019-06-20T07:18:51.518Z,5.67
2019-06-20T07:19:30.449Z,5.83
2019-06-20T07:20:09.006Z,5.43
2019-06-20T07:20:47.889Z,5.80
2019-06-20T07:21:27.247Z,5.07
2019-06-20T07:22:05.568Z,5.73
2019-06-20T07:22:44.453Z,5.60
2019-06-20T07:23:23.413Z,5.40
2019-06-20T07:24:01.813Z,5.47
2019-06-20T07:24:40.727Z,5.87
2019-06-20T07:25:20.013Z,5.57
2019-06-20T07:25:58.389Z,5.77
2019-06-20T07:26:37.280Z,5.60
2019-06-20T07:27:16.188Z,5.25
2019-06-20T07:27:54.558Z,5.13
2019-06-20T07:28:33.484Z,5.43
2019-06-20T07:29:12.401Z,5.20
2019-06-20T07:29:50.753Z,5.90
2019-06-20T07:30:29.906Z,5.60
2019-06-20T07:31:07.560Z,5.97
2019-06-20T07:31:45.887Z,5.20
2019-06-20T07:32:24.806Z,5.93
2019-06-20T07:33:03.705Z,5.23
2019-06-20T07:33:42.034Z,5.60
2019-06-20T07:34:20.957Z,5.77
2019-06-20T07:34:59.877Z,6.40
2019-06-20T07:35:41.656Z,5.90
2019-06-20T07:36:18.518Z,5.80
2019-06-20T07:36:57.461Z,5.67
2019-06-20T07:37:35.835Z,5.93
2019-06-20T07:38:14.793Z,5.57
2019-06-20T07:38:53.748Z,5.92
2019-06-20T07:39:32.072Z,5.10
2019-06-20T07:40:11.342Z,6.13
2019-06-20T07:40:50.287Z,5.60
2019-06-20T07:41:28.612Z,6.37
2019-06-20T07:42:07.585Z,6.10
2019-06-20T07:42:46.500Z,6.13
2019-06-20T07:43:24.840Z,6.00
2019-06-20T07:44:03.783Z,6.10
2019-06-20T07:44:42.725Z,6.27
2019-06-20T07:45:21.024Z,5.50
2019-06-20T07:46:02.819Z,5.97
2019-06-20T07:46:41.592Z,5.67
2019-06-20T07:47:19.933Z,5.23
2019-06-20T07:47:58.874Z,6.10
2019-06-20T07:48:38.010Z,5.67
2019-06-20T07:49:16.367Z,6.27
2019-06-20T07:49:55.400Z,5.85
2019-06-20T07:50:34.386Z,5.53
2019-06-20T07:51:12.710Z,6.00
2019-06-20T07:51:51.618Z,5.90
2019-06-20T07:52:30.588Z,5.63
2019-06-20T07:53:08.979Z,5.40
2019-06-20T07:53:47.864Z,6.67
2019-06-20T07:54:26.783Z,5.67
2019-06-20T07:55:05.089Z,6.00
2019-06-20T07:55:44.054Z,5.83
2019-06-20T07:56:23.048Z,5.97
2019-06-20T07:57:01.443Z,5.57
2019-06-20T07:57:40.402Z,6.43
2019-06-20T07:58:19.360Z,6.20
2019-06-20T07:58:57.707Z,5.50
2019-06-20T07:59:36.554Z,5.60
2019-06-20T08:00:15.513Z,5.70
2019-06-20T08:00:53.977Z,6.23
2019-06-20T08:01:32.960Z,6.43
2019-06-20T08:02:11.845Z,5.60
2019-06-20T08:02:50.145Z,5.73
2019-06-20T08:03:29.074Z,5.70
2019-06-20T08:04:12.774Z,7.23
2019-06-20T08:04:51.120Z,6.10
2019-06-20T08:05:30.054Z,5.60
2019-06-20T08:06:08.941Z,6.23
2019-06-20T08:06:47.293Z,6.20
2019-06-20T08:07:26.252Z,6.30
2019-06-20T08:08:05.329Z,6.13
2019-06-20T08:08:43.686Z,6.23
2019-06-20T08:09:23.225Z,6.57
2019-06-20T08:10:02.349Z,6.00
2019-06-20T08:10:41.193Z,6.63
2019-06-20T08:11:20.126Z,6.73
2019-06-20T08:11:59.220Z,6.10
2019-06-20T08:12:37.616Z,7.57
2019-06-20T08:13:16.555Z,6.17
2019-06-20T08:13:55.473Z,6.40
2019-06-20T08:14:33.969Z,6.70
2019-06-20T08:15:15.646Z,6.00
2019-06-20T08:15:53.324Z,6.60
2019-06-20T08:16:32.215Z,5.83
2019-06-20T08:17:11.142Z,6.70
2019-06-20T08:17:50.081Z,6.83
2019-06-20T08:18:28.412Z,6.03
2019-06-20T08:19:07.283Z,6.97
2019-06-20T08:19:46.276Z,6.30
2019-06-20T08:20:24.642Z,6.65
2019-06-20T08:21:03.597Z,6.42
2019-06-20T08:21:44.228Z,6.70
2019-06-20T08:22:22.314Z,6.65
2019-06-20T08:23:01.244Z,6.93
2019-06-20T08:23:40.180Z,7.30
2019-06-20T08:24:18.490Z,7.23
2019-06-20T08:24:57.390Z,6.70
2019-06-20T08:25:36.317Z,6.63
2019-06-20T08:26:15.365Z,6.40
2019-06-20T08:26:54.260Z,7.53
2019-06-20T08:27:49.275Z,7.33
2019-06-20T08:28:27.809Z,6.77
2019-06-20T08:29:18.632Z,6.35
2019-06-20T08:29:47.085Z,6.43
2019-06-20T08:30:27.084Z,6.43
2019-06-20T08:31:06.823Z,6.93
2019-06-20T08:31:45.920Z,6.60
2019-06-20T08:32:24.268Z,7.40
2019-06-20T08:33:07.545Z,6.87
2019-06-20T08:33:43.541Z,7.67
2019-06-20T08:34:21.856Z,6.83
2019-06-20T08:35:02.364Z,7.80
2019-06-20T08:35:41.108Z,7.13
2019-06-20T08:36:19.400Z,6.60
2019-06-20T08:36:59.244Z,6.73
2019-06-20T08:37:38.651Z,6.70
2019-06-20T08:38:17.074Z,7.40
2019-06-20T08:38:56.933Z,7.30